Latest Weather Observations for Cerberus

IDV60801

Issued at 9:12 pm EST Thursday 20 June 2019 (issued every 10 minutes, with the page automatically refreshed every 10 minutes)

About weather observations | Map of weather stations | Latest weather observations for VIC | Other Formats
Station Details ID: 086361 Name: CERBERUS Lat: -38.36 Lon: 145.18 Height: 12.69 m
Data from the previous 72 hours. | See also: Recent months at Cerberus
Date/Time
EST
Temp
°C
App
Temp
°C
Dew
Point
°C
Rel
Hum
%
Delta-T
°C
Wind Press
QNH
hPa
Press
MSL
hPa
Rain since
9am
mm
Dir  Spd
km/h
Gust
km/h
Spd
kts
Gust
kts
20/09:00pm 8.0 5.4 6.1 88 0.9 W 9 13 5 7 1025.8 1025.8 4.0
20/08:30pm 7.9 5.8 6.0 88 0.9 W 6 9 3 5 1026.0 1026.0 4.0
20/08:00pm 8.0 5.8 6.0 87 0.9 W 7 11 4 6 1025.8 1025.8 3.8
20/07:30pm 7.8 5.5 5.8 87 0.9 WNW 7 9 4 5 1025.8 1025.8 3.6
20/07:00pm 8.0 5.8 6.1 88 0.9 W 7 11 4 6 1025.5 1025.5 3.6
20/06:30pm 7.4 6.0 5.4 87 0.9 WNW 2 6 1 3 1025.1 1025.1 3.6
20/06:00pm 7.2 5.7 5.0 86 1.0 WNW 2 6 1 3 1024.9 1024.9 3.6
20/05:30pm 8.1 7.2 5.9 86 1.0 CALM 0 2 0 1 1024.7 1024.7 3.6
20/05:00pm 8.2 6.8 5.7 84 1.1 W 2 4 1 2 1024.5 1024.5 3.6
20/04:30pm 8.8 6.8 6.1 83 1.2 W 6 6 3 3 1024.4 1024.4 3.6
20/04:00pm 9.0 7.3 5.9 81 1.4 SSE 4 6 2 3 1024.3 1024.3 3.6
20/03:30pm 10.8 9.3 8.4 85 1.2 NW 6 9 3 5 1024.2 1024.2 3.2
20/03:00pm 9.1 7.2 6.9 86 1.0 N 6 9 3 5 1024.2 1024.2 3.2
20/02:30pm 9.5 7.7 7.1 85 1.1 NNE 6 11 3 6 1024.3 1024.3 2.2
20/02:00pm 9.7 7.8 6.8 82 1.4 W 6 9 3 5 1024.4 1024.4 2.0
20/01:30pm 10.7 9.4 7.8 82 1.4 NNW 4 7 2 4 1024.4 1024.4 1.6
20/01:00pm 9.7 8.4 7.5 86 1.0 NW 4 6 2 3 1024.8 1024.8 1.6
20/12:30pm 9.1 8.5 7.4 89 0.8 CALM 0 2 0 1 1025.2 1025.2 1.6
20/12:00pm 9.4 8.5 7.8 90 0.8 SSW 2 4 1 2 1025.5 1025.5 1.6
20/11:30am 9.1 7.8 7.5 90 0.8 SSW 4 4 2 2 1025.9 1025.9 1.6
20/11:00am 8.7 6.0 7.2 90 0.7 SW 11 17 6 9 1025.9 1025.9 0.8
20/10:30am 10.2 8.7 9.0 92 0.6 NW 7 11 4 6 1025.8 1025.8 0.0
20/10:00am 9.4 7.9 8.3 93 0.5 NNW 6 9 3 5 1025.9 1025.9 0.0
20/09:30am 7.9 6.4 6.7 92 0.6 NNW 4 6 2 3 1025.9 1025.9 0.0
20/09:00am 7.7 6.5 6.5 92 0.5 NNW 2 6 1 3 1025.8 1025.8 1.0
20/08:30am 7.4 5.8 6.3 93 0.5 NNW 4 6 2 3 1025.8 1025.8 1.0
20/08:00am 6.8 5.4 5.6 92 0.5 NNW 2 4 1 2 1025.8 1025.8 1.0
20/07:30am 6.3 4.8 5.1 92 0.5 NNW 2 6 1 3 1025.8 1025.8 1.0
20/07:00am 6.2 3.9 5.0 92 0.5 NNW 6 7 3 4 1025.6 1025.6 0.8
20/06:30am 6.0 4.5 4.8 92 0.5 NNE 2 4 1 2 1025.6 1025.6 0.8
20/06:00am 6.3 4.8 5.1 92 0.5 N 2 4 1 2 1025.2 1025.2 0.8
20/05:30am 6.2 4.3 5.0 92 0.5 N 4 6 2 3 1025.0 1025.0 0.8
20/05:00am 6.0 4.1 4.8 92 0.5 N 4 7 2 4 1025.1 1025.1 0.6
20/04:30am 5.6 3.2 4.4 92 0.5 NNE 6 7 3 4 1025.1 1025.1 0.6
20/04:00am 5.0 3.6 3.8 92 0.5 CALM 0 0 0 0 1025.2 1025.2 0.6
20/03:30am 4.2 2.3 2.9 91 0.5 NE 2 2 1 1 1025.3 1025.3 0.6
20/03:00am 4.7 2.1 3.4 91 0.5 E 6 7 3 4 1025.4 1025.4 0.6
20/02:30am 4.2 2.7 2.9 91 0.5 CALM 0 0 0 0 1025.4 1025.4 0.6
20/02:00am 3.8 1.5 2.6 92 0.5 WSW 4 6 2 3 1025.5 1025.5 0.4
20/01:30am 4.2 1.6 3.0 92 0.5 NW 6 6 3 3 1025.5 1025.5 0.4
20/01:00am 2.9 0.4 1.4 90 0.6 NW 4 6 2 3 1025.7 1025.7 0.4
20/12:30am 2.4 0.6 0.9 90 0.6 CALM 0 2 0 1 1025.7 1025.7 0.4
20/12:00am 2.7 0.5 1.2 90 0.6 NW 2 2 1 1 1025.7 1025.7 0.4
 
Date/Time
EST
Temp
°C
App
Temp
°C
Dew
Point
°C
Rel
Hum
%
Delta-T
°C
Wind Press
QNH
hPa
Press
MSL
hPa
Rain since
9am
mm
Dir  Spd
km/h
Gust
km/h
Spd
kts
Gust
kts
19/11:30pm 4.3 1.5 3.0 91 0.5 NW 7 7 4 4 1025.9 1025.9 0.4
19/11:00pm 3.9 1.5 2.4 90 0.6 W 4 4 2 2 1026.0 1026.0 0.4
19/10:30pm 3.1 0.6 1.5 89 0.6 W 4 6 2 3 1026.0 1026.0 0.4
19/10:00pm 4.0 2.4 2.4 89 0.6 CALM 0 4 0 2 1026.0 1026.0 0.4
19/09:30pm 3.8 1.4 2.0 88 0.7 WNW 4 6 2 3 1026.0 1026.0 0.4
19/09:00pm 5.1 2.5 3.3 88 0.7 NNW 6 7 3 4 1026.1 1026.1 0.4
19/08:30pm 5.3 2.5 3.3 87 0.8 NW 7 7 4 4 1026.1 1026.1 0.4
19/08:00pm 4.8 2.8 2.5 85 0.9 S 2 6 1 3 1026.1 1026.1 0.0
19/07:30pm 5.4 3.2 3.1 85 0.9 WNW 4 6 2 3 1026.0 1026.0 0.0
19/07:00pm 5.0 2.6 2.2 82 1.1 S 4 6 2 3 1025.9 1025.9 0.0
19/06:30pm 5.2 3.5 1.7 78 1.4 CALM 0 4 0 2 1025.8 1025.8 0.0
19/06:00pm 7.2 4.5 2.7 73 1.9 SW 6 15 3 8 1025.8 1025.8 0.0
19/05:30pm 7.5 5.1 2.2 69 2.2 WSW 4 6 2 3 1025.5 1025.5 0.0
19/05:00pm 9.1 6.4 2.9 65 2.6 WSW 6 9 3 5 1025.6 1025.6 0.0
19/04:30pm 9.9 6.9 2.3 59 3.2 SW 7 13 4 7 1025.6 1025.6 0.0
19/04:00pm 11.2 7.2 2.8 56 3.6 SW 13 22 7 12 1025.4 1025.4 0.0
19/03:30pm 11.9 8.5 2.1 51 4.2 SW 9 15 5 8 1025.3 1025.3 0.0
19/03:00pm 11.3 7.7 2.9 56 3.6 SW 11 19 6 10 1025.2 1025.2 0.0
19/02:30pm 12.3 8.9 3.8 56 3.8 SW 11 17 6 9 1025.1 1025.1 0.0
19/02:00pm 11.8 8.3 3.6 57 3.6 SW 11 17 6 9 1025.1 1025.1 0.0
19/01:30pm 11.2 6.8 2.8 56 3.6 SW 15 22 8 12 1025.3 1025.3 0.0
19/01:00pm 12.4 8.3 4.4 58 3.6 SSW 15 24 8 13 1025.3 1025.3 0.0
19/12:30pm 11.7 8.3 4.2 60 3.4 SW 11 19 6 10 1025.5 1025.5 0.0
19/12:00pm 11.9 8.2 4.4 60 3.4 SW 13 22 7 12 1025.6 1025.6 0.0
19/11:30am 11.8 8.9 4.8 62 3.2 SW 9 17 5 9 1025.7 1025.7 0.0
19/11:00am 10.9 8.9 7.0 77 1.8 W 7 13 4 7 1025.9 1025.9 0.0
19/10:30am 11.2 9.2 7.1 76 2.0 W 7 9 4 5 1025.7 1025.7 0.0
19/10:00am 10.5 8.4 6.6 77 1.8 WNW 7 9 4 5 1025.7 1025.7 0.0
19/09:30am 9.2 7.0 6.1 81 1.4 WNW 7 11 4 6 1025.4 1025.4 0.0
19/09:00am 8.4 6.3 5.9 84 1.1 WNW 6 9 3 5 1025.2 1025.2 17.4
19/08:30am 7.5 5.6 5.1 85 1.1 WNW 4 7 2 4 1024.8 1024.8 17.4
19/08:00am 7.3 4.8 5.0 85 1.0 WNW 7 9 4 5 1024.5 1024.5 17.4
19/07:30am 7.5 4.4 5.5 87 0.9 W 11 20 6 11 1024.3 1024.3 17.4
19/07:00am 7.0 4.6 5.2 88 0.8 WNW 7 11 4 6 1023.9 1023.9 17.4
19/06:30am 6.8 4.4 5.1 89 0.7 WNW 7 13 4 7 1023.5 1023.5 17.2
19/06:00am 6.6 3.4 5.1 90 0.7 NW 11 13 6 7 1023.1 1023.1 17.2
19/05:30am 6.2 3.8 4.5 89 0.7 WNW 6 6 3 3 1022.7 1022.7 17.2
19/05:00am 6.8 3.6 5.3 90 0.7 W 11 20 6 11 1022.7 1022.7 17.2
19/04:30am 6.3 4.0 4.6 89 0.7 NW 6 11 3 6 1022.5 1022.5 17.2
19/04:00am 6.1 4.1 4.4 89 0.7 WNW 4 9 2 5 1022.6 1022.6 17.2
19/03:30am 7.0 4.6 5.3 89 0.8 WNW 7 15 4 8 1022.7 1022.7 17.2
19/03:00am 7.2 3.4 5.7 90 0.7 WNW 15 20 8 11 1022.6 1022.6 17.2
19/02:30am 6.3 3.8 4.6 89 0.7 NW 7 13 4 7 1022.7 1022.7 17.0
19/02:00am 6.6 3.7 4.8 88 0.8 NW 9 13 5 7 1022.6 1022.6 17.0
19/01:30am 6.2 4.2 4.4 88 0.8 NNW 4 7 2 4 1022.4 1022.4 17.0
19/01:00am 6.8 4.3 4.8 87 0.9 NW 7 11 4 6 1022.6 1022.6 17.0
19/12:30am 7.3 4.9 5.3 87 0.9 WNW 7 11 4 6 1022.9 1022.9 16.2
19/12:00am 7.5 5.1 5.3 86 1.0 WNW 7 13 4 7 1022.4 1022.4 15.2
 
Date/Time
EST
Temp
°C
App
Temp
°C
Dew
Point
°C
Rel
Hum
%
Delta-T
°C
Wind Press
QNH
hPa
Press
MSL
hPa
Rain since
9am
mm
Dir  Spd
km/h
Gust
km/h
Spd
kts
Gust
kts
18/11:30pm 7.3 4.9 5.1 86 1.0 NW 7 13 4 7 1022.3 1022.3 15.0
18/11:00pm 6.8 3.9 4.5 85 1.0 NW 9 13 5 7 1022.2 1022.2 15.0
18/10:30pm 7.9 4.3 5.2 83 1.2 WSW 13 19 7 10 1022.1 1022.1 15.0
18/10:00pm 8.3 3.5 4.9 79 1.5 WNW 19 32 10 17 1021.7 1021.7 14.6
18/09:30pm 8.2 4.6 5.0 80 1.4 WNW 13 17 7 9 1021.3 1021.3 14.6
18/09:00pm 7.8 4.5 4.6 80 1.4 WNW 11 15 6 8 1021.2 1021.2 14.6
18/08:30pm 7.8 4.6 4.9 82 1.3 WNW 11 19 6 10 1020.8 1020.8 14.6
18/08:00pm 7.0 3.7 4.3 83 1.2 NW 11 15 6 8 1020.5 1020.5 14.6
18/07:30pm 7.5 3.8 4.6 82 1.3 W 13 26 7 14 1020.7 1020.7 14.6
18/07:00pm 7.1 4.6 4.8 85 1.0 WNW 7 13 4 7 1020.2 1020.2 13.0
18/06:30pm 7.5 5.4 5.6 88 0.9 WNW 6 9 3 5 1019.9 1019.9 13.0
18/06:00pm 8.1 6.1 6.2 88 0.9 NNW 6 7 3 4 1019.5 1019.5 13.0
18/05:30pm 8.4 5.5 6.5 88 0.9 NW 11 19 6 10 1019.4 1019.4 13.0
18/05:00pm 7.8 5.2 5.9 88 0.9 WNW 9 13 5 7 1019.1 1019.1 13.0
18/04:30pm 7.7 5.4 5.8 88 0.9 NW 7 15 4 8 1018.9 1018.9 13.0
18/04:00pm 7.9 4.8 5.7 86 1.0 W 11 22 6 12 1018.7 1018.7 10.8
18/03:30pm 7.8 4.8 5.8 87 0.9 W 11 30 6 16 1018.4 1018.4 9.6
18/03:00pm 8.3 5.0 6.3 87 0.9 WSW 13 20 7 11 1018.4 1018.4 7.6
18/02:30pm 8.4 3.0 6.2 86 1.0 WSW 24 35 13 19 1017.4 1017.4 5.6
18/02:00pm 8.8 4.4 6.6 86 1.0 WSW 19 32 10 17 1017.1 1017.1 3.8
18/01:30pm 10.3 7.3 7.5 83 1.3 W 13 19 7 10 1016.5 1016.5 1.8
18/01:00pm 10.6 7.1 7.3 80 1.6 WNW 15 26 8 14 1016.3 1016.3 0.8
18/12:30pm 12.0 7.5 7.1 72 2.4 WNW 20 32 11 17 1016.3 1016.3 0.4
18/12:00pm 11.5 6.7 7.2 75 2.1 NW 22 33 12 18 1016.4 1016.4 0.4
18/11:30am 11.4 7.3 7.9 79 1.7 NW 19 35 10 19 1016.5 1016.5 0.4
18/11:00am 10.5 8.3 7.9 84 1.3 NNW 9 20 5 11 1016.7 1016.7 0.4
18/10:30am 10.6 7.7 8.2 85 1.2 NNW 13 33 7 18 1016.9 1016.9 0.4
18/10:00am 10.8 7.0 7.7 81 1.5 NNW 17 26 9 14 1016.8 1016.8 0.0
18/09:30am 11.1 7.6 7.2 77 1.9 NNW 15 24 8 13 1016.4 1016.4 0.0
18/09:00am 11.1 7.5 6.8 75 2.0 N 15 24 8 13 1016.0 1016.0 0.2
18/08:30am 11.3 7.7 6.6 73 2.2 N 15 24 8 13 1015.7 1015.7 0.2
18/08:00am 11.3 7.2 6.4 72 2.3 N 17 33 9 18 1015.4 1015.4 0.2
18/07:30am 11.5 7.8 6.4 71 2.4 N 15 30 8 16 1015.3 1015.3 0.2
18/07:00am 11.3 8.4 6.4 72 2.3 N 11 22 6 12 1015.4 1015.4 0.2
18/06:30am 11.4 7.7 6.3 71 2.4 N 15 24 8 13 1015.3 1015.3 0.2
18/06:00am 11.7 8.1 6.6 71 2.4 N 15 24 8 13 1015.3 1015.3 0.2
18/05:30am 11.8 8.2 6.9 72 2.3 N 15 32 8 17 1015.3 1015.3 0.2
18/05:00am 11.6 8.2 7.5 76 2.0 N 15 33 8 18 1015.4 1015.4 0.2
18/04:30am 11.1 8.3 7.0 76 2.0 N 11 19 6 10 1016.0 1016.0 0.2
18/04:00am 11.3 8.1 7.0 75 2.0 N 13 24 7 13 1016.3 1016.3 0.2
18/03:30am 11.4 7.8 6.9 74 2.1 N 15 24 8 13 1016.6 1016.6 0.2
18/03:00am 11.5 8.7 6.8 73 2.2 N 11 19 6 10 1016.7 1016.7 0.2
18/02:30am 11.6 8.4 6.7 72 2.3 N 13 26 7 14 1017.0 1017.0 0.2
18/02:00am 11.7 8.2 7.0 73 2.2 N 15 24 8 13 1017.1 1017.1 0.2
18/01:30am 10.2 8.3 6.7 79 1.6 N 6 11 3 6 1017.2 1017.2 0.2
18/01:00am 10.0 7.9 6.7 80 1.5 NNE 7 13 4 7 1017.4 1017.4 0.2
18/12:30am 9.9 7.4 6.4 79 1.6 N 9 15 5 8 1017.7 1017.7 0.2
18/12:00am 10.0 7.9 6.5 79 1.6 N 7 13 4 7 1018.2 1018.2 0.2
 
Date/Time
EST
Temp
°C
App
Temp
°C
Dew
Point
°C
Rel
Hum
%
Delta-T
°C
Wind Press
QNH
hPa
Press
MSL
hPa
Rain since
9am
mm
Dir  Spd
km/h
Gust
km/h
Spd
kts
Gust
kts
17/11:30pm 9.9 7.7 6.4 79 1.6 N 7 13 4 7 1018.4 1018.4 0.2
17/11:00pm 10.3 7.8 6.6 78 1.7 N 9 15 5 8 1018.6 1018.6 0.2
17/10:30pm 10.3 7.8 6.6 78 1.7 N 9 17 5 9 1018.8 1018.8 0.2
17/10:00pm 10.6 8.2 7.1 79 1.7 N 9 15 5 8 1019.0 1019.0 0.2
17/09:30pm 10.9 8.6 7.4 79 1.7 N 9 17 5 9 1019.4 1019.4 0.2

Other formats

Comma delimited format used in spreadsheet applications
http://www.bom.gov.au/fwo/IDV60801/IDV60801.94898.axf

JavaScript Object Notation format (JSON) in row-major order
http://www.bom.gov.au/fwo/IDV60801/IDV60801.94898.json

Data quality

Most of these data are generated automatically and are frequently updated. Quality checks on data are not normally performed. It is possible for incorrect values to appear. Refer to information at About Latest Weather Observations and please check the disclaimer before using these data.